sensor_id;sensor_type;location;lat;lon;timestamp;temperature;humidity
12926;DHT22;6529;50.566;9.774;2024-02-26T00:02:23;2.00;99.90
12926;DHT22;6529;50.566;9.774;2024-02-26T00:04:49;2.00;99.90
12926;DHT22;6529;50.566;9.774;2024-02-26T00:07:16;2.00;99.90
12926;DHT22;6529;50.566;9.774;2024-02-26T00:09:41;2.00;99.90
12926;DHT22;6529;50.566;9.774;2024-02-26T00:12:07;2.00;99.90
12926;DHT22;6529;50.566;9.774;2024-02-26T00:14:33;1.90;99.90
12926;DHT22;6529;50.566;9.774;2024-02-26T00:16:59;1.90;99.90
12926;DHT22;6529;50.566;9.774;2024-02-26T00:19:24;1.90;99.90
12926;DHT22;6529;50.566;9.774;2024-02-26T00:21:50;2.00;99.90
12926;DHT22;6529;50.566;9.774;2024-02-26T00:24:16;1.90;99.90
12926;DHT22;6529;50.566;9.774;2024-02-26T00:26:41;1.90;99.90
12926;DHT22;6529;50.566;9.774;2024-02-26T00:29:07;1.80;99.90
12926;DHT22;6529;50.566;9.774;2024-02-26T00:31:32;1.80;99.90
12926;DHT22;6529;50.566;9.774;2024-02-26T00:33:58;1.80;99.90
12926;DHT22;6529;50.566;9.774;2024-02-26T00:36:23;1.80;99.90
12926;DHT22;6529;50.566;9.774;2024-02-26T00:38:49;2.00;99.90
12926;DHT22;6529;50.566;9.774;2024-02-26T00:41:20;2.00;99.90
12926;DHT22;6529;50.566;9.774;2024-02-26T00:43:47;2.00;99.90
12926;DHT22;6529;50.566;9.774;2024-02-26T00:46:12;2.10;99.90
12926;DHT22;6529;50.566;9.774;2024-02-26T00:48:38;2.10;99.90
12926;DHT22;6529;50.566;9.774;2024-02-26T00:51:04;2.00;99.90
12926;DHT22;6529;50.566;9.774;2024-02-26T00:53:33;2.00;99.90
12926;DHT22;6529;50.566;9.774;2024-02-26T00:55:59;1.90;99.90
12926;DHT22;6529;50.566;9.774;2024-02-26T00:58:26;2.00;99.90
12926;DHT22;6529;50.566;9.774;2024-02-26T01:00:51;2.00;99.90
12926;DHT22;6529;50.566;9.774;2024-02-26T01:03:18;2.10;99.90
12926;DHT22;6529;50.566;9.774;2024-02-26T01:05:43;2.10;99.90
12926;DHT22;6529;50.566;9.774;2024-02-26T01:08:09;2.20;99.90
12926;DHT22;6529;50.566;9.774;2024-02-26T01:10:34;2.20;99.90
12926;DHT22;6529;50.566;9.774;2024-02-26T01:13:01;2.20;99.90
12926;DHT22;6529;50.566;9.774;2024-02-26T01:15:27;2.10;99.90
12926;DHT22;6529;50.566;9.774;2024-02-26T01:17:52;2.00;99.90
12926;DHT22;6529;50.566;9.774;2024-02-26T01:20:18;2.00;99.90
12926;DHT22;6529;50.566;9.774;2024-02-26T01:22:44;2.10;99.90
12926;DHT22;6529;50.566;9.774;2024-02-26T01:25:10;2.10;99.90
12926;DHT22;6529;50.566;9.774;2024-02-26T01:27:39;2.20;99.90
12926;DHT22;6529;50.566;9.774;2024-02-26T01:30:07;2.20;99.90
12926;DHT22;6529;50.566;9.774;2024-02-26T01:32:33;2.30;99.90
12926;DHT22;6529;50.566;9.774;2024-02-26T01:34:58;2.30;99.90
12926;DHT22;6529;50.566;9.774;2024-02-26T01:37:24;2.30;99.90
12926;DHT22;6529;50.566;9.774;2024-02-26T01:39:50;2.30;99.90
12926;DHT22;6529;50.566;9.774;2024-02-26T01:42:15;2.30;99.90
12926;DHT22;6529;50.566;9.774;2024-02-26T01:44:41;2.40;99.90
12926;DHT22;6529;50.566;9.774;2024-02-26T01:47:10;2.40;99.90
12926;DHT22;6529;50.566;9.774;2024-02-26T01:49:36;2.40;99.90
12926;DHT22;6529;50.566;9.774;2024-02-26T01:52:04;2.40;99.90
12926;DHT22;6529;50.566;9.774;2024-02-26T01:54:31;2.40;99.90
12926;DHT22;6529;50.566;9.774;2024-02-26T01:56:59;2.40;99.90
12926;DHT22;6529;50.566;9.774;2024-02-26T01:59:25;2.40;99.90
12926;DHT22;6529;50.566;9.774;2024-02-26T02:01:55;2.30;99.90
12926;DHT22;6529;50.566;9.774;2024-02-26T02:04:23;2.30;99.90
12926;DHT22;6529;50.566;9.774;2024-02-26T02:06:50;2.30;99.90
12926;DHT22;6529;50.566;9.774;2024-02-26T02:09:18;2.30;99.90
12926;DHT22;6529;50.566;9.774;2024-02-26T02:11:43;2.30;99.90
12926;DHT22;6529;50.566;9.774;2024-02-26T02:14:10;2.20;99.90
12926;DHT22;6529;50.566;9.774;2024-02-26T02:16:35;2.30;99.90
12926;DHT22;6529;50.566;9.774;2024-02-26T02:19:01;2.20;99.90
12926;DHT22;6529;50.566;9.774;2024-02-26T02:21:26;2.20;99.90
12926;DHT22;6529;50.566;9.774;2024-02-26T02:23:52;2.20;99.90
12926;DHT22;6529;50.566;9.774;2024-02-26T02:26:18;2.30;99.90
12926;DHT22;6529;50.566;9.774;2024-02-26T02:28:45;2.30;99.90
12926;DHT22;6529;50.566;9.774;2024-02-26T02:31:11;2.30;99.90
12926;DHT22;6529;50.566;9.774;2024-02-26T02:33:37;2.30;99.90
12926;DHT22;6529;50.566;9.774;2024-02-26T02:36:03;2.30;99.90
12926;DHT22;6529;50.566;9.774;2024-02-26T02:38:29;2.30;99.90
12926;DHT22;6529;50.566;9.774;2024-02-26T02:40:55;2.30;99.90
12926;DHT22;6529;50.566;9.774;2024-02-26T02:43:21;2.40;99.90
12926;DHT22;6529;50.566;9.774;2024-02-26T02:45:47;2.50;99.90
12926;DHT22;6529;50.566;9.774;2024-02-26T02:48:12;2.50;99.90
12926;DHT22;6529;50.566;9.774;2024-02-26T02:50:38;2.40;99.90
12926;DHT22;6529;50.566;9.774;2024-02-26T02:53:04;2.40;99.90
12926;DHT22;6529;50.566;9.774;2024-02-26T02:55:29;2.40;99.90
12926;DHT22;6529;50.566;9.774;2024-02-26T02:57:55;2.40;99.90
12926;DHT22;6529;50.566;9.774;2024-02-26T03:00:21;2.40;99.90
12926;DHT22;6529;50.566;9.774;2024-02-26T03:02:48;2.40;99.90
12926;DHT22;6529;50.566;9.774;2024-02-26T03:05:14;2.40;99.90
12926;DHT22;6529;50.566;9.774;2024-02-26T03:07:40;2.40;99.90
12926;DHT22;6529;50.566;9.774;2024-02-26T03:10:06;2.50;99.90
12926;DHT22;6529;50.566;9.774;2024-02-26T03:12:33;2.50;99.90
12926;DHT22;6529;50.566;9.774;2024-02-26T03:14:58;2.50;99.90
12926;DHT22;6529;50.566;9.774;2024-02-26T03:17:26;2.50;99.90
12926;DHT22;6529;50.566;9.774;2024-02-26T03:19:52;2.50;99.90
12926;DHT22;6529;50.566;9.774;2024-02-26T03:22:19;2.50;99.90
12926;DHT22;6529;50.566;9.774;2024-02-26T03:24:46;2.50;99.90
12926;DHT22;6529;50.566;9.774;2024-02-26T03:27:11;2.50;99.90
12926;DHT22;6529;50.566;9.774;2024-02-26T03:29:37;2.60;99.90
12926;DHT22;6529;50.566;9.774;2024-02-26T03:32:07;2.60;99.90
12926;DHT22;6529;50.566;9.774;2024-02-26T03:34:33;2.60;99.90
12926;DHT22;6529;50.566;9.774;2024-02-26T03:37:01;2.70;99.90
12926;DHT22;6529;50.566;9.774;2024-02-26T03:39:27;2.60;99.90
12926;DHT22;6529;50.566;9.774;2024-02-26T03:41:52;2.60;99.90
12926;DHT22;6529;50.566;9.774;2024-02-26T03:44:18;2.60;99.90
12926;DHT22;6529;50.566;9.774;2024-02-26T03:46:43;2.60;99.90
12926;DHT22;6529;50.566;9.774;2024-02-26T03:49:09;2.60;99.90
12926;DHT22;6529;50.566;9.774;2024-02-26T03:51:35;2.60;99.90
12926;DHT22;6529;50.566;9.774;2024-02-26T03:54:01;2.60;99.90
12926;DHT22;6529;50.566;9.774;2024-02-26T03:56:27;2.60;99.90
12926;DHT22;6529;50.566;9.774;2024-02-26T03:58:53;2.60;99.90
12926;DHT22;6529;50.566;9.774;2024-02-26T04:01:18;2.60;99.90
12926;DHT22;6529;50.566;9.774;2024-02-26T04:03:44;2.70;99.90
12926;DHT22;6529;50.566;9.774;2024-02-26T04:06:10;2.70;99.90
12926;DHT22;6529;50.566;9.774;2024-02-26T04:08:39;2.70;99.90
12926;DHT22;6529;50.566;9.774;2024-02-26T04:11:05;2.70;99.90
12926;DHT22;6529;50.566;9.774;2024-02-26T04:13:33;2.80;99.90
12926;DHT22;6529;50.566;9.774;2024-02-26T04:15:59;2.70;99.90
12926;DHT22;6529;50.566;9.774;2024-02-26T04:18:26;2.70;99.90
12926;DHT22;6529;50.566;9.774;2024-02-26T04:20:52;2.70;99.90
12926;DHT22;6529;50.566;9.774;2024-02-26T04:23:18;2.60;99.90
12926;DHT22;6529;50.566;9.774;2024-02-26T04:25:43;2.60;99.90
12926;DHT22;6529;50.566;9.774;2024-02-26T04:28:09;2.60;99.90
12926;DHT22;6529;50.566;9.774;2024-02-26T04:30:34;2.60;99.90
12926;DHT22;6529;50.566;9.774;2024-02-26T04:33:00;2.60;99.90
12926;DHT22;6529;50.566;9.774;2024-02-26T04:35:25;2.60;99.90
12926;DHT22;6529;50.566;9.774;2024-02-26T04:37:51;2.60;99.90
12926;DHT22;6529;50.566;9.774;2024-02-26T04:40:16;2.60;99.90
12926;DHT22;6529;50.566;9.774;2024-02-26T04:42:42;2.60;99.90
12926;DHT22;6529;50.566;9.774;2024-02-26T04:45:08;2.60;99.90
12926;DHT22;6529;50.566;9.774;2024-02-26T04:47:34;2.60;99.90
12926;DHT22;6529;50.566;9.774;2024-02-26T04:49:59;2.60;99.90
12926;DHT22;6529;50.566;9.774;2024-02-26T04:52:25;2.60;99.90
12926;DHT22;6529;50.566;9.774;2024-02-26T04:54:51;2.70;99.90
12926;DHT22;6529;50.566;9.774;2024-02-26T04:57:17;2.70;99.90
12926;DHT22;6529;50.566;9.774;2024-02-26T04:59:44;2.70;99.90
12926;DHT22;6529;50.566;9.774;2024-02-26T05:02:11;2.60;99.90
12926;DHT22;6529;50.566;9.774;2024-02-26T05:04:37;2.60;99.90
12926;DHT22;6529;50.566;9.774;2024-02-26T05:07:02;2.60;99.90
12926;DHT22;6529;50.566;9.774;2024-02-26T05:09:29;2.60;99.90
12926;DHT22;6529;50.566;9.774;2024-02-26T05:11:54;2.60;99.90
12926;DHT22;6529;50.566;9.774;2024-02-26T05:14:20;2.60;99.90
12926;DHT22;6529;50.566;9.774;2024-02-26T05:16:45;2.60;99.90
12926;DHT22;6529;50.566;9.774;2024-02-26T05:19:11;2.70;99.90
12926;DHT22;6529;50.566;9.774;2024-02-26T05:21:37;2.70;99.90
12926;DHT22;6529;50.566;9.774;2024-02-26T05:24:02;2.60;99.90
12926;DHT22;6529;50.566;9.774;2024-02-26T05:26:28;2.70;99.90
12926;DHT22;6529;50.566;9.774;2024-02-26T05:28:53;2.70;99.90
12926;DHT22;6529;50.566;9.774;2024-02-26T05:31:26;2.70;99.90
12926;DHT22;6529;50.566;9.774;2024-02-26T05:33:52;2.70;99.90
12926;DHT22;6529;50.566;9.774;2024-02-26T05:36:19;2.60;99.90
12926;DHT22;6529;50.566;9.774;2024-02-26T05:38:45;2.60;99.90
12926;DHT22;6529;50.566;9.774;2024-02-26T05:41:12;2.60;99.90
12926;DHT22;6529;50.566;9.774;2024-02-26T05:43:37;2.60;99.90
12926;DHT22;6529;50.566;9.774;2024-02-26T05:46:03;2.50;99.90
12926;DHT22;6529;50.566;9.774;2024-02-26T05:48:28;2.50;99.90
12926;DHT22;6529;50.566;9.774;2024-02-26T05:50:54;2.60;99.90
12926;DHT22;6529;50.566;9.774;2024-02-26T05:53:19;2.60;99.90
12926;DHT22;6529;50.566;9.774;2024-02-26T05:55:45;2.60;99.90
12926;DHT22;6529;50.566;9.774;2024-02-26T05:58:10;2.60;99.90
12926;DHT22;6529;50.566;9.774;2024-02-26T06:00:36;2.60;99.90
12926;DHT22;6529;50.566;9.774;2024-02-26T06:03:02;2.60;99.90
12926;DHT22;6529;50.566;9.774;2024-02-26T06:05:27;2.60;99.90
12926;DHT22;6529;50.566;9.774;2024-02-26T06:07:53;2.60;99.90
12926;DHT22;6529;50.566;9.774;2024-02-26T06:10:20;2.60;99.90
12926;DHT22;6529;50.566;9.774;2024-02-26T06:12:47;3.00;99.90
12926;DHT22;6529;50.566;9.774;2024-02-26T06:15:12;3.10;99.90
12926;DHT22;6529;50.566;9.774;2024-02-26T06:17:38;3.30;99.90
12926;DHT22;6529;50.566;9.774;2024-02-26T06:20:04;3.80;99.90
12926;DHT22;6529;50.566;9.774;2024-02-26T06:22:32;3.60;99.90
12926;DHT22;6529;50.566;9.774;2024-02-26T06:24:57;3.70;99.90
12926;DHT22;6529;50.566;9.774;2024-02-26T06:27:23;3.60;99.90
12926;DHT22;6529;50.566;9.774;2024-02-26T06:29:50;3.40;99.90
12926;DHT22;6529;50.566;9.774;2024-02-26T06:32:15;3.30;99.90
12926;DHT22;6529;50.566;9.774;2024-02-26T06:34:41;3.20;99.90
12926;DHT22;6529;50.566;9.774;2024-02-26T06:37:08;3.10;99.90
12926;DHT22;6529;50.566;9.774;2024-02-26T06:39:33;3.00;99.90
12926;DHT22;6529;50.566;9.774;2024-02-26T06:41:59;3.00;99.90
12926;DHT22;6529;50.566;9.774;2024-02-26T06:44:28;3.00;99.90
12926;DHT22;6529;50.566;9.774;2024-02-26T06:46:59;3.00;99.90
12926;DHT22;6529;50.566;9.774;2024-02-26T06:49:25;3.00;99.90
12926;DHT22;6529;50.566;9.774;2024-02-26T06:51:51;3.00;99.90
12926;DHT22;6529;50.566;9.774;2024-02-26T06:54:17;3.20;99.90
12926;DHT22;6529;50.566;9.774;2024-02-26T06:56:42;3.20;99.90
12926;DHT22;6529;50.566;9.774;2024-02-26T06:59:08;3.20;99.90
12926;DHT22;6529;50.566;9.774;2024-02-26T07:01:33;3.20;99.90
12926;DHT22;6529;50.566;9.774;2024-02-26T07:03:59;3.20;99.90
12926;DHT22;6529;50.566;9.774;2024-02-26T07:06:26;3.20;99.90
12926;DHT22;6529;50.566;9.774;2024-02-26T07:08:52;3.20;99.90
12926;DHT22;6529;50.566;9.774;2024-02-26T07:11:18;3.10;99.90
12926;DHT22;6529;50.566;9.774;2024-02-26T07:13:45;3.20;99.90
12926;DHT22;6529;50.566;9.774;2024-02-26T07:16:11;3.30;99.90
12926;DHT22;6529;50.566;9.774;2024-02-26T07:18:37;3.40;99.90
12926;DHT22;6529;50.566;9.774;2024-02-26T07:21:03;3.40;99.90
12926;DHT22;6529;50.566;9.774;2024-02-26T07:23:29;3.40;99.90
12926;DHT22;6529;50.566;9.774;2024-02-26T07:25:55;3.50;99.90
12926;DHT22;6529;50.566;9.774;2024-02-26T07:28:20;3.60;99.90
12926;DHT22;6529;50.566;9.774;2024-02-26T07:30:46;3.70;99.90
12926;DHT22;6529;50.566;9.774;2024-02-26T07:33:12;3.70;99.90
12926;DHT22;6529;50.566;9.774;2024-02-26T07:35:38;3.80;99.90
12926;DHT22;6529;50.566;9.774;2024-02-26T07:38:04;3.90;99.90
12926;DHT22;6529;50.566;9.774;2024-02-26T07:40:30;4.00;99.90
12926;DHT22;6529;50.566;9.774;2024-02-26T07:42:56;4.10;99.90
12926;DHT22;6529;50.566;9.774;2024-02-26T07:45:22;4.20;99.90
12926;DHT22;6529;50.566;9.774;2024-02-26T07:47:48;4.20;99.90
12926;DHT22;6529;50.566;9.774;2024-02-26T07:50:14;4.20;99.90
12926;DHT22;6529;50.566;9.774;2024-02-26T07:52:40;4.20;99.90
12926;DHT22;6529;50.566;9.774;2024-02-26T07:55:06;4.30;99.90
12926;DHT22;6529;50.566;9.774;2024-02-26T07:57:35;4.30;99.90
12926;DHT22;6529;50.566;9.774;2024-02-26T08:00:04;4.40;99.90
12926;DHT22;6529;50.566;9.774;2024-02-26T08:02:32;4.40;99.90
12926;DHT22;6529;50.566;9.774;2024-02-26T08:04:59;4.50;99.90
12926;DHT22;6529;50.566;9.774;2024-02-26T08:07:25;4.60;99.90
12926;DHT22;6529;50.566;9.774;2024-02-26T08:09:50;4.70;99.90
12926;DHT22;6529;50.566;9.774;2024-02-26T08:12:16;4.80;63.40
12926;DHT22;6529;50.566;9.774;2024-02-26T08:14:42;4.80;98.70
12926;DHT22;6529;50.566;9.774;2024-02-26T08:17:09;4.90;99.90
12926;DHT22;6529;50.566;9.774;2024-02-26T08:19:35;5.00;1.00
12926;DHT22;6529;50.566;9.774;2024-02-26T08:22:01;5.10;1.00
12926;DHT22;6529;50.566;9.774;2024-02-26T08:24:27;5.20;6.10
12926;DHT22;6529;50.566;9.774;2024-02-26T08:26:52;5.20;35.60
12926;DHT22;6529;50.566;9.774;2024-02-26T08:29:18;5.30;17.90
12926;DHT22;6529;50.566;9.774;2024-02-26T08:31:43;5.30;44.50
12926;DHT22;6529;50.566;9.774;2024-02-26T08:34:09;5.30;86.80
12926;DHT22;6529;50.566;9.774;2024-02-26T08:36:35;5.40;1.00
12926;DHT22;6529;50.566;9.774;2024-02-26T08:39:00;5.40;1.00
12926;DHT22;6529;50.566;9.774;2024-02-26T08:41:26;5.40;1.00
12926;DHT22;6529;50.566;9.774;2024-02-26T08:43:51;5.50;24.60
12926;DHT22;6529;50.566;9.774;2024-02-26T08:46:17;5.60;14.20
12926;DHT22;6529;50.566;9.774;2024-02-26T08:48:43;5.70;1.00
12926;DHT22;6529;50.566;9.774;2024-02-26T08:51:09;5.80;1.00
12926;DHT22;6529;50.566;9.774;2024-02-26T08:53:35;5.90;1.00
12926;DHT22;6529;50.566;9.774;2024-02-26T08:56:01;5.90;1.00
12926;DHT22;6529;50.566;9.774;2024-02-26T08:58:30;5.90;1.00
12926;DHT22;6529;50.566;9.774;2024-02-26T09:00:55;6.00;1.00
12926;DHT22;6529;50.566;9.774;2024-02-26T09:03:22;6.00;1.00
12926;DHT22;6529;50.566;9.774;2024-02-26T09:05:47;6.00;1.00
12926;DHT22;6529;50.566;9.774;2024-02-26T09:08:13;6.10;1.00
12926;DHT22;6529;50.566;9.774;2024-02-26T09:10:39;6.20;1.00
12926;DHT22;6529;50.566;9.774;2024-02-26T09:13:04;6.30;1.00
12926;DHT22;6529;50.566;9.774;2024-02-26T09:15:30;6.30;99.90
12926;DHT22;6529;50.566;9.774;2024-02-26T09:17:56;6.30;99.90
12926;DHT22;6529;50.566;9.774;2024-02-26T09:20:21;6.30;99.90
12926;DHT22;6529;50.566;9.774;2024-02-26T09:22:49;6.40;99.90
12926;DHT22;6529;50.566;9.774;2024-02-26T09:25:15;6.40;1.00
12926;DHT22;6529;50.566;9.774;2024-02-26T09:27:43;6.50;99.90
12926;DHT22;6529;50.566;9.774;2024-02-26T09:30:12;6.50;99.90
12926;DHT22;6529;50.566;9.774;2024-02-26T09:32:39;6.50;99.90
12926;DHT22;6529;50.566;9.774;2024-02-26T09:35:05;6.60;99.90
12926;DHT22;6529;50.566;9.774;2024-02-26T09:37:31;6.60;1.00
12926;DHT22;6529;50.566;9.774;2024-02-26T09:39:56;6.60;1.00
12926;DHT22;6529;50.566;9.774;2024-02-26T09:42:27;6.70;99.90
12926;DHT22;6529;50.566;9.774;2024-02-26T09:44:57;6.70;1.00
12926;DHT22;6529;50.566;9.774;2024-02-26T09:47:26;6.70;1.00
12926;DHT22;6529;50.566;9.774;2024-02-26T09:49:54;6.60;1.00
12926;DHT22;6529;50.566;9.774;2024-02-26T09:52:21;6.70;99.90
12926;DHT22;6529;50.566;9.774;2024-02-26T09:54:49;6.80;17.30
12926;DHT22;6529;50.566;9.774;2024-02-26T09:57:15;6.80;1.00
12926;DHT22;6529;50.566;9.774;2024-02-26T09:59:43;6.90;99.90
12926;DHT22;6529;50.566;9.774;2024-02-26T10:02:12;6.90;1.00
12926;DHT22;6529;50.566;9.774;2024-02-26T10:04:39;6.90;1.00
12926;DHT22;6529;50.566;9.774;2024-02-26T10:07:10;6.90;1.00
12926;DHT22;6529;50.566;9.774;2024-02-26T10:09:37;7.00;99.90
12926;DHT22;6529;50.566;9.774;2024-02-26T10:12:07;7.00;99.90
12926;DHT22;6529;50.566;9.774;2024-02-26T10:14:33;7.00;1.00
12926;DHT22;6529;50.566;9.774;2024-02-26T10:16:59;7.00;1.00
12926;DHT22;6529;50.566;9.774;2024-02-26T10:19:30;7.10;1.00
12926;DHT22;6529;50.566;9.774;2024-02-26T10:21:57;7.10;1.00
12926;DHT22;6529;50.566;9.774;2024-02-26T10:24:23;7.10;1.00
12926;DHT22;6529;50.566;9.774;2024-02-26T10:26:49;7.20;99.90
12926;DHT22;6529;50.566;9.774;2024-02-26T10:29:15;7.30;26.90
12926;DHT22;6529;50.566;9.774;2024-02-26T10:31:44;7.30;99.90
12926;DHT22;6529;50.566;9.774;2024-02-26T10:34:09;7.40;1.00
12926;DHT22;6529;50.566;9.774;2024-02-26T10:36:35;7.50;1.00
12926;DHT22;6529;50.566;9.774;2024-02-26T10:39:05;7.60;99.90
12926;DHT22;6529;50.566;9.774;2024-02-26T10:41:32;7.60;24.80
12926;DHT22;6529;50.566;9.774;2024-02-26T10:43:58;7.70;1.00
12926;DHT22;6529;50.566;9.774;2024-02-26T10:46:25;7.70;99.90
12926;DHT22;6529;50.566;9.774;2024-02-26T10:48:51;7.70;1.00
12926;DHT22;6529;50.566;9.774;2024-02-26T10:51:29;7.60;45.20
12926;DHT22;6529;50.566;9.774;2024-02-26T10:53:56;7.60;1.00
12926;DHT22;6529;50.566;9.774;2024-02-26T10:56:28;7.70;1.00
12926;DHT22;6529;50.566;9.774;2024-02-26T10:58:55;7.70;99.90
12926;DHT22;6529;50.566;9.774;2024-02-26T11:01:22;7.60;99.90
12926;DHT22;6529;50.566;9.774;2024-02-26T11:03:53;7.60;79.80
12926;DHT22;6529;50.566;9.774;2024-02-26T11:06:20;7.60;1.00
12926;DHT22;6529;50.566;9.774;2024-02-26T11:08:53;7.60;1.00
12926;DHT22;6529;50.566;9.774;2024-02-26T11:11:20;7.60;1.00
12926;DHT22;6529;50.566;9.774;2024-02-26T11:13:48;7.60;99.90
12926;DHT22;6529;50.566;9.774;2024-02-26T11:16:18;7.50;1.00
12926;DHT22;6529;50.566;9.774;2024-02-26T11:18:46;7.50;1.00
12926;DHT22;6529;50.566;9.774;2024-02-26T11:21:16;7.50;99.90
12926;DHT22;6529;50.566;9.774;2024-02-26T11:23:45;7.60;99.90
12926;DHT22;6529;50.566;9.774;2024-02-26T11:26:11;7.60;99.90
12926;DHT22;6529;50.566;9.774;2024-02-26T11:28:38;7.70;1.00
12926;DHT22;6529;50.566;9.774;2024-02-26T11:31:05;7.80;1.00
12926;DHT22;6529;50.566;9.774;2024-02-26T11:33:33;8.10;99.90
12926;DHT22;6529;50.566;9.774;2024-02-26T11:36:08;8.50;99.90
12926;DHT22;6529;50.566;9.774;2024-02-26T11:38:34;8.90;1.00
12926;DHT22;6529;50.566;9.774;2024-02-26T11:40:59;9.10;99.90
12926;DHT22;6529;50.566;9.774;2024-02-26T11:43:57;9.30;1.00
12926;DHT22;6529;50.566;9.774;2024-02-26T11:51:17;11.50;99.90
12926;DHT22;6529;50.566;9.774;2024-02-26T11:53:50;12.20;66.30
12926;DHT22;6529;50.566;9.774;2024-02-26T11:58:47;12.40;1.00
12926;DHT22;6529;50.566;9.774;2024-02-26T12:01:43;12.40;99.90
12926;DHT22;6529;50.566;9.774;2024-02-26T12:04:19;12.60;1.00
12926;DHT22;6529;50.566;9.774;2024-02-26T12:07:02;12.70;99.90
12926;DHT22;6529;50.566;9.774;2024-02-26T12:09:39;12.00;99.90
12926;DHT22;6529;50.566;9.774;2024-02-26T12:12:07;11.50;99.90
12926;DHT22;6529;50.566;9.774;2024-02-26T12:14:34;11.10;1.00
12926;DHT22;6529;50.566;9.774;2024-02-26T12:17:00;10.70;1.00
12926;DHT22;6529;50.566;9.774;2024-02-26T12:19:27;11.10;99.90
12926;DHT22;6529;50.566;9.774;2024-02-26T12:21:53;11.60;99.90
12926;DHT22;6529;50.566;9.774;2024-02-26T12:24:20;11.50;45.60
12926;DHT22;6529;50.566;9.774;2024-02-26T12:26:46;11.90;99.90
12926;DHT22;6529;50.566;9.774;2024-02-26T12:29:12;11.80;1.00
12926;DHT22;6529;50.566;9.774;2024-02-26T12:31:39;11.40;1.00
12926;DHT22;6529;50.566;9.774;2024-02-26T12:34:06;11.20;99.90
12926;DHT22;6529;50.566;9.774;2024-02-26T12:36:33;11.00;1.00
12926;DHT22;6529;50.566;9.774;2024-02-26T12:39:01;10.90;99.90
12926;DHT22;6529;50.566;9.774;2024-02-26T12:41:27;10.80;99.90
12926;DHT22;6529;50.566;9.774;2024-02-26T12:43:55;10.70;99.90
12926;DHT22;6529;50.566;9.774;2024-02-26T12:46:22;10.50;99.90
12926;DHT22;6529;50.566;9.774;2024-02-26T12:48:48;10.40;1.00
12926;DHT22;6529;50.566;9.774;2024-02-26T12:51:15;10.20;1.00
12926;DHT22;6529;50.566;9.774;2024-02-26T12:53:41;10.00;1.00
12926;DHT22;6529;50.566;9.774;2024-02-26T12:56:10;10.00;1.00
12926;DHT22;6529;50.566;9.774;2024-02-26T12:58:38;9.90;1.00
12926;DHT22;6529;50.566;9.774;2024-02-26T13:01:05;10.00;99.90
12926;DHT22;6529;50.566;9.774;2024-02-26T13:03:33;10.10;1.00
12926;DHT22;6529;50.566;9.774;2024-02-26T13:06:00;10.10;99.90
12926;DHT22;6529;50.566;9.774;2024-02-26T13:08:26;10.20;1.00
12926;DHT22;6529;50.566;9.774;2024-02-26T13:10:51;10.20;1.00
12926;DHT22;6529;50.566;9.774;2024-02-26T13:13:18;10.10;1.00
12926;DHT22;6529;50.566;9.774;2024-02-26T13:15:45;10.20;1.00
12926;DHT22;6529;50.566;9.774;2024-02-26T13:18:15;10.30;1.00
12926;DHT22;6529;50.566;9.774;2024-02-26T13:20:41;10.40;1.00
12926;DHT22;6529;50.566;9.774;2024-02-26T13:23:08;10.60;1.00
12926;DHT22;6529;50.566;9.774;2024-02-26T13:25:34;10.70;1.00
12926;DHT22;6529;50.566;9.774;2024-02-26T13:28:12;10.90;1.00
12926;DHT22;6529;50.566;9.774;2024-02-26T13:30:39;11.00;1.00
12926;DHT22;6529;50.566;9.774;2024-02-26T13:33:11;11.10;99.90
12926;DHT22;6529;50.566;9.774;2024-02-26T13:35:38;10.90;37.70
12926;DHT22;6529;50.566;9.774;2024-02-26T13:38:04;10.80;99.90
12926;DHT22;6529;50.566;9.774;2024-02-26T13:40:30;10.70;24.00
12926;DHT22;6529;50.566;9.774;2024-02-26T13:42:56;10.50;1.00
12926;DHT22;6529;50.566;9.774;2024-02-26T13:45:21;10.50;41.40
12926;DHT22;6529;50.566;9.774;2024-02-26T13:47:47;10.50;99.90
12926;DHT22;6529;50.566;9.774;2024-02-26T13:50:12;10.60;1.00
12926;DHT22;6529;50.566;9.774;2024-02-26T13:52:38;10.60;1.00
12926;DHT22;6529;50.566;9.774;2024-02-26T13:55:04;10.80;1.00
12926;DHT22;6529;50.566;9.774;2024-02-26T13:57:29;10.80;1.00
12926;DHT22;6529;50.566;9.774;2024-02-26T13:59:55;10.60;1.00
12926;DHT22;6529;50.566;9.774;2024-02-26T14:02:21;10.50;1.00
12926;DHT22;6529;50.566;9.774;2024-02-26T14:04:47;10.50;99.90
12926;DHT22;6529;50.566;9.774;2024-02-26T14:07:13;10.50;51.20
12926;DHT22;6529;50.566;9.774;2024-02-26T14:09:38;10.50;99.90
12926;DHT22;6529;50.566;9.774;2024-02-26T14:12:04;10.60;99.90
12926;DHT22;6529;50.566;9.774;2024-02-26T14:14:30;10.50;92.80
12926;DHT22;6529;50.566;9.774;2024-02-26T14:16:58;10.40;99.90
12926;DHT22;6529;50.566;9.774;2024-02-26T14:19:24;10.30;99.90
12926;DHT22;6529;50.566;9.774;2024-02-26T14:21:50;10.20;99.90
12926;DHT22;6529;50.566;9.774;2024-02-26T14:24:15;10.10;99.90
12926;DHT22;6529;50.566;9.774;2024-02-26T14:26:41;10.10;99.90
12926;DHT22;6529;50.566;9.774;2024-02-26T14:29:06;10.30;1.00
12926;DHT22;6529;50.566;9.774;2024-02-26T14:31:32;10.40;1.00
12926;DHT22;6529;50.566;9.774;2024-02-26T14:33:58;10.50;99.90
12926;DHT22;6529;50.566;9.774;2024-02-26T14:36:24;10.60;99.90
12926;DHT22;6529;50.566;9.774;2024-02-26T14:38:50;10.70;56.30
12926;DHT22;6529;50.566;9.774;2024-02-26T14:41:16;10.80;1.00
12926;DHT22;6529;50.566;9.774;2024-02-26T14:43:41;10.90;62.80
12926;DHT22;6529;50.566;9.774;2024-02-26T14:46:07;11.10;1.00
12926;DHT22;6529;50.566;9.774;2024-02-26T14:48:33;11.10;1.00
12926;DHT22;6529;50.566;9.774;2024-02-26T14:50:59;11.00;99.90
12926;DHT22;6529;50.566;9.774;2024-02-26T14:53:25;10.90;99.90
12926;DHT22;6529;50.566;9.774;2024-02-26T14:55:51;10.90;99.90
12926;DHT22;6529;50.566;9.774;2024-02-26T14:58:17;10.80;99.90
12926;DHT22;6529;50.566;9.774;2024-02-26T15:00:42;10.80;99.90
12926;DHT22;6529;50.566;9.774;2024-02-26T15:03:08;10.70;99.90
12926;DHT22;6529;50.566;9.774;2024-02-26T15:05:34;10.80;1.00
12926;DHT22;6529;50.566;9.774;2024-02-26T15:08:00;10.70;1.00
12926;DHT22;6529;50.566;9.774;2024-02-26T15:10:26;10.60;99.90
12926;DHT22;6529;50.566;9.774;2024-02-26T15:12:52;10.50;1.00
12926;DHT22;6529;50.566;9.774;2024-02-26T15:15:23;10.40;1.00
12926;DHT22;6529;50.566;9.774;2024-02-26T15:17:49;10.30;1.00
12926;DHT22;6529;50.566;9.774;2024-02-26T15:20:15;10.20;1.00
12926;DHT22;6529;50.566;9.774;2024-02-26T15:22:41;10.10;1.80
12926;DHT22;6529;50.566;9.774;2024-02-26T15:25:07;10.10;93.30
12926;DHT22;6529;50.566;9.774;2024-02-26T15:27:33;10.00;99.90
12926;DHT22;6529;50.566;9.774;2024-02-26T15:29:59;10.00;99.90
12926;DHT22;6529;50.566;9.774;2024-02-26T15:32:26;10.00;1.00
12926;DHT22;6529;50.566;9.774;2024-02-26T15:34:52;10.00;99.90
12926;DHT22;6529;50.566;9.774;2024-02-26T15:37:18;9.90;1.00
12926;DHT22;6529;50.566;9.774;2024-02-26T15:39:44;9.90;1.00
12926;DHT22;6529;50.566;9.774;2024-02-26T15:42:10;9.70;1.00
12926;DHT22;6529;50.566;9.774;2024-02-26T15:44:37;9.70;83.20
12926;DHT22;6529;50.566;9.774;2024-02-26T15:47:03;9.60;99.90
12926;DHT22;6529;50.566;9.774;2024-02-26T15:49:30;9.50;1.00
12926;DHT22;6529;50.566;9.774;2024-02-26T15:51:56;9.50;1.00
12926;DHT22;6529;50.566;9.774;2024-02-26T15:54:21;9.40;1.00
12926;DHT22;6529;50.566;9.774;2024-02-26T15:56:47;9.40;1.00
12926;DHT22;6529;50.566;9.774;2024-02-26T15:59:12;9.40;1.00
12926;DHT22;6529;50.566;9.774;2024-02-26T16:01:39;9.30;30.30
12926;DHT22;6529;50.566;9.774;2024-02-26T16:04:04;9.20;99.90
12926;DHT22;6529;50.566;9.774;2024-02-26T16:06:34;9.10;1.00